createdAt,value
2023-02-11T00:00:04.357Z,40.75
2023-02-11T00:02:33.068Z,37.10
2023-02-11T00:05:03.328Z,37.22
2023-02-11T00:07:31.398Z,34.70
2023-02-11T00:09:58.062Z,41.53
2023-02-11T00:12:25.515Z,37.33
2023-02-11T00:14:52.341Z,35.25
2023-02-11T00:17:19.016Z,36.22
2023-02-11T00:19:49.786Z,38.45
2023-02-11T00:22:16.553Z,36.83
2023-02-11T00:24:43.415Z,38.28
2023-02-11T00:27:10.103Z,35.15
2023-02-11T00:29:37.947Z,34.00
2023-02-11T00:32:06.102Z,38.42
2023-02-11T00:34:33.293Z,39.85
2023-02-11T00:37:02.730Z,35.75
2023-02-11T00:39:29.915Z,39.17
2023-02-11T00:41:57.335Z,33.65
2023-02-11T00:44:24.457Z,37.28
2023-02-11T00:46:51.121Z,33.88
2023-02-11T00:49:17.951Z,32.72
2023-02-11T00:51:44.709Z,37.83
2023-02-11T00:54:11.844Z,33.10
2023-02-11T00:56:39.231Z,37.28
2023-02-11T00:59:05.885Z,37.03
2023-02-11T01:01:32.754Z,38.17
2023-02-11T01:03:59.855Z,37.15
2023-02-11T01:06:26.535Z,34.50
2023-02-11T01:08:53.436Z,35.58
2023-02-11T01:11:21.831Z,32.05
2023-02-11T01:13:49.385Z,34.90
2023-02-11T01:16:16.794Z,35.65
2023-02-11T01:18:45.285Z,39.00
2023-02-11T01:21:11.996Z,36.67
2023-02-11T01:23:38.742Z,32.60
2023-02-11T01:26:06.085Z,34.08
2023-02-11T01:28:33.151Z,37.40
2023-02-11T01:31:01.746Z,38.05
2023-02-11T01:33:28.788Z,37.30
2023-02-11T01:35:55.621Z,35.20
2023-02-11T01:38:26.406Z,37.85
2023-02-11T01:40:55.906Z,35.03
2023-02-11T01:43:23.805Z,37.85
2023-02-11T01:46:17.516Z,42.03
2023-02-11T01:48:47.792Z,34.85
2023-02-11T01:51:23.968Z,32.35
2023-02-11T01:54:09.958Z,36.53
2023-02-11T01:57:01.092Z,35.73
2023-02-11T01:59:34.508Z,40.53
2023-02-11T02:02:08.346Z,34.33
2023-02-11T02:04:44.075Z,33.60
2023-02-11T02:07:17.392Z,38.33
2023-02-11T02:09:51.568Z,36.60
2023-02-11T02:12:18.364Z,39.08
2023-02-11T02:14:45.011Z,36.10
2023-02-11T02:17:26.361Z,38.88
2023-02-11T02:20:09.060Z,36.80
2023-02-11T02:23:13.060Z,35.67
2023-02-11T02:26:03.940Z,35.05
2023-02-11T02:28:48.805Z,37.35
2023-02-11T02:31:37.048Z,36.13
2023-02-11T02:34:21.761Z,35.28
2023-02-11T02:37:01.058Z,36.38
2023-02-11T02:39:36.134Z,35.35
2023-02-11T02:42:03.714Z,39.42
2023-02-11T02:44:30.854Z,37.58
2023-02-11T02:46:57.901Z,37.70
2023-02-11T02:49:24.597Z,33.22
2023-02-11T02:51:57.276Z,35.20
2023-02-11T02:54:45.656Z,36.80
2023-02-11T02:57:57.454Z,36.58
2023-02-11T03:00:27.671Z,32.67
2023-02-11T03:03:31.860Z,31.20
2023-02-11T03:06:08.036Z,30.58
2023-02-11T03:08:41.395Z,32.75
2023-02-11T03:11:10.442Z,32.42
2023-02-11T03:13:39.385Z,34.13
2023-02-11T03:16:15.240Z,31.00
2023-02-11T03:18:46.688Z,32.00
2023-02-11T03:21:17.374Z,34.15
2023-02-11T03:23:53.999Z,33.65
2023-02-11T03:26:30.721Z,33.08
2023-02-11T03:29:23.481Z,29.65
2023-02-11T03:32:03.849Z,31.73
2023-02-11T03:34:33.351Z,31.83
2023-02-11T03:37:06.534Z,31.92
2023-02-11T03:40:10.175Z,28.08
2023-02-11T03:42:43.414Z,35.00
2023-02-11T03:45:15.606Z,28.05
2023-02-11T03:47:47.430Z,28.95
2023-02-11T03:50:16.578Z,30.48
2023-02-11T03:52:45.268Z,31.65
2023-02-11T03:55:16.892Z,31.42
2023-02-11T03:57:43.887Z,31.25
2023-02-11T04:00:11.578Z,36.65
2023-02-11T04:02:39.639Z,32.25
2023-02-11T04:05:08.460Z,30.15
2023-02-11T04:07:35.270Z,29.92
2023-02-11T04:10:02.246Z,28.20
2023-02-11T04:12:28.923Z,48.08
2023-02-11T04:14:55.629Z,30.42
2023-02-11T04:17:22.252Z,30.02
2023-02-11T04:19:48.904Z,25.13
2023-02-11T04:22:15.627Z,27.52
2023-02-11T04:24:44.028Z,27.83
2023-02-11T04:27:10.723Z,26.83
2023-02-11T04:29:37.465Z,31.60
2023-02-11T04:32:04.363Z,28.40
2023-02-11T04:34:31.222Z,28.65
2023-02-11T04:36:57.912Z,32.88
2023-02-11T04:39:24.592Z,33.83
2023-02-11T04:41:51.388Z,27.63
2023-02-11T04:44:18.095Z,31.38
2023-02-11T04:46:44.839Z,28.20
2023-02-11T04:49:15.873Z,30.15
2023-02-11T04:51:46.009Z,28.70
2023-02-11T04:54:14.321Z,31.05
2023-02-11T04:56:40.940Z,26.60
2023-02-11T04:59:07.624Z,27.75
2023-02-11T05:01:34.341Z,29.85
2023-02-11T05:04:01.100Z,34.13
2023-02-11T05:06:27.830Z,29.05
2023-02-11T05:08:54.547Z,26.77
2023-02-11T05:11:23.398Z,27.70
2023-02-11T05:13:50.195Z,31.38
2023-02-11T05:16:18.070Z,23.23
2023-02-11T05:18:45.854Z,26.17
2023-02-11T05:21:15.985Z,31.98
2023-02-11T05:23:43.223Z,26.17
2023-02-11T05:26:10.211Z,24.02
2023-02-11T05:28:37.118Z,24.77
2023-02-11T05:31:04.591Z,21.90
2023-02-11T05:33:31.331Z,21.88
2023-02-11T05:36:03.346Z,22.33
2023-02-11T05:38:30.015Z,22.70
2023-02-11T05:40:56.734Z,22.45
2023-02-11T05:43:23.363Z,19.08
2023-02-11T05:45:50.510Z,27.10
2023-02-11T05:48:17.949Z,22.40
2023-02-11T05:50:45.222Z,22.20
2023-02-11T05:53:12.180Z,24.48
2023-02-11T05:55:38.978Z,22.85
2023-02-11T05:58:06.789Z,19.35
2023-02-11T06:00:34.446Z,20.27
2023-02-11T06:03:01.486Z,24.48
2023-02-11T06:05:28.136Z,18.17
2023-02-11T06:07:54.791Z,20.05
2023-02-11T06:10:21.719Z,17.98
2023-02-11T06:12:48.427Z,19.98
2023-02-11T06:15:15.125Z,18.83
2023-02-11T06:17:41.771Z,20.50
2023-02-11T06:20:10.616Z,19.23
2023-02-11T06:22:37.920Z,22.20
2023-02-11T06:25:04.841Z,23.90
2023-02-11T06:27:31.500Z,21.65
2023-02-11T06:29:58.134Z,19.88
2023-02-11T06:32:42.821Z,20.80
2023-02-11T06:35:12.047Z,19.38
2023-02-11T06:37:39.994Z,20.27
2023-02-11T06:40:07.266Z,20.27
2023-02-11T06:42:34.602Z,18.67
2023-02-11T06:45:01.297Z,20.48
2023-02-11T06:47:28.010Z,18.80
2023-02-11T06:49:54.653Z,21.02
2023-02-11T06:52:21.334Z,19.75
2023-02-11T06:54:47.994Z,22.88
2023-02-11T06:57:14.701Z,20.70
2023-02-11T06:59:41.798Z,20.40
2023-02-11T07:02:11.553Z,23.10
2023-02-11T07:04:38.294Z,21.38
2023-02-11T07:07:05.026Z,22.08
2023-02-11T07:09:31.780Z,21.48
2023-02-11T07:11:58.457Z,24.38
2023-02-11T07:14:25.563Z,23.13
2023-02-11T07:16:52.229Z,22.63
2023-02-11T07:19:18.841Z,22.77
2023-02-11T07:21:45.460Z,23.27
2023-02-11T07:24:13.307Z,22.02
2023-02-11T07:26:40.741Z,23.02
2023-02-11T07:29:07.378Z,21.10
2023-02-11T07:31:34.260Z,22.38
2023-02-11T07:34:01.901Z,19.85
2023-02-11T07:36:30.557Z,21.52
2023-02-11T07:38:57.834Z,21.48
2023-02-11T07:41:25.313Z,21.10
2023-02-11T07:43:52.740Z,22.75
2023-02-11T07:46:26.241Z,22.23
2023-02-11T07:48:53.908Z,20.10
2023-02-11T07:51:29.424Z,24.27
2023-02-11T07:53:57.989Z,21.77
2023-02-11T07:56:24.757Z,23.52
2023-02-11T07:58:51.703Z,25.45
2023-02-11T08:01:25.462Z,25.17
2023-02-11T08:03:52.962Z,21.75
2023-02-11T08:06:21.608Z,18.45
2023-02-11T08:08:48.699Z,25.98
2023-02-11T08:11:17.251Z,25.90
2023-02-11T08:13:44.702Z,22.17
2023-02-11T08:16:26.848Z,22.48
2023-02-11T08:18:55.674Z,23.83
2023-02-11T08:21:22.391Z,27.63
2023-02-11T08:23:49.902Z,25.90
2023-02-11T08:26:28.740Z,27.85
2023-02-11T08:28:56.938Z,23.25
2023-02-11T08:31:26.465Z,25.20
2023-02-11T08:33:57.854Z,26.17
2023-02-11T08:36:27.190Z,26.02
2023-02-11T08:39:15.865Z,23.35
2023-02-11T08:41:45.778Z,25.73
2023-02-11T08:44:13.269Z,26.33
2023-02-11T08:46:40.329Z,25.08
2023-02-11T08:49:06.952Z,24.00
2023-02-11T08:51:33.647Z,25.85
2023-02-11T08:54:01.284Z,22.58
2023-02-11T08:56:28.538Z,25.48
2023-02-11T08:58:57.747Z,24.83
2023-02-11T09:01:27.472Z,25.85
2023-02-11T09:03:54.721Z,22.23
2023-02-11T09:06:22.627Z,25.52
2023-02-11T09:08:51.615Z,26.23
2023-02-11T09:11:21.475Z,22.85
2023-02-11T09:13:48.164Z,21.38
2023-02-11T09:16:23.833Z,23.65
2023-02-11T09:18:50.942Z,20.52
2023-02-11T09:21:18.343Z,25.23
2023-02-11T09:23:47.656Z,22.50
2023-02-11T09:26:20.206Z,22.80
2023-02-11T09:28:47.879Z,24.83
2023-02-11T09:31:17.506Z,24.95
2023-02-11T09:33:49.147Z,22.25
2023-02-11T09:36:18.924Z,24.15
2023-02-11T09:38:45.700Z,21.25
2023-02-11T09:41:35.239Z,22.55
2023-02-11T09:44:06.417Z,20.17
2023-02-11T09:46:37.574Z,21.10
2023-02-11T09:49:06.064Z,23.45
2023-02-11T09:51:44.075Z,22.27
2023-02-11T09:54:21.702Z,20.95
2023-02-11T09:56:48.385Z,20.30
2023-02-11T09:59:16.613Z,24.40
2023-02-11T10:01:59.024Z,23.23
2023-02-11T10:04:37.692Z,19.20
2023-02-11T10:07:25.252Z,17.77
2023-02-11T10:10:09.641Z,25.15
2023-02-11T10:13:05.604Z,20.73
2023-02-11T10:15:44.307Z,23.80
2023-02-11T10:18:38.816Z,24.60
2023-02-11T10:21:37.437Z,21.60
2023-02-11T10:24:12.375Z,22.83
2023-02-11T10:26:40.745Z,18.65
2023-02-11T10:29:29.003Z,25.90
2023-02-11T10:31:58.332Z,21.38
2023-02-11T10:34:25.155Z,20.08
2023-02-11T10:36:51.837Z,20.77
2023-02-11T10:39:19.788Z,18.42
2023-02-11T10:41:52.335Z,21.75
2023-02-11T10:44:31.007Z,17.52
2023-02-11T10:47:02.170Z,21.48
2023-02-11T10:49:43.891Z,20.27
2023-02-11T10:52:14.380Z,17.70
2023-02-11T10:54:41.019Z,20.27
2023-02-11T10:57:20.710Z,16.25
2023-02-11T10:59:47.976Z,17.50
2023-02-11T11:02:25.284Z,14.80
2023-02-11T11:04:57.631Z,17.33
2023-02-11T11:07:27.966Z,13.48
2023-02-11T11:10:02.820Z,13.75
2023-02-11T11:12:40.302Z,15.13
2023-02-11T11:15:10.470Z,15.40
2023-02-11T11:17:38.171Z,18.75
2023-02-11T11:20:33.551Z,21.38
2023-02-11T11:23:22.730Z,14.95
2023-02-11T11:26:27.012Z,13.95
2023-02-11T11:29:16.304Z,16.83
2023-02-11T11:31:57.203Z,14.95
2023-02-11T11:34:31.547Z,13.82
2023-02-11T11:37:32.896Z,12.35
2023-02-11T11:40:12.817Z,15.27
2023-02-11T11:42:45.898Z,17.00
2023-02-11T11:45:15.903Z,17.38
2023-02-11T11:47:57.444Z,13.00
2023-02-11T11:50:47.558Z,17.65
2023-02-11T11:53:24.980Z,12.85
2023-02-11T11:56:05.354Z,12.95
2023-02-11T11:58:38.327Z,14.88
2023-02-11T12:01:30.326Z,18.27
2023-02-11T12:04:03.777Z,14.95
2023-02-11T12:06:41.540Z,12.90
2023-02-11T12:09:23.356Z,13.95
2023-02-11T12:12:05.788Z,12.32
2023-02-11T12:14:54.663Z,13.23
2023-02-11T12:17:54.543Z,11.88
2023-02-11T12:20:35.884Z,12.02
2023-02-11T12:23:10.842Z,10.55
2023-02-11T12:25:52.584Z,9.85
2023-02-11T12:28:40.501Z,10.25
2023-02-11T12:31:14.628Z,7.82
2023-02-11T12:34:19.282Z,10.30
2023-02-11T12:36:54.526Z,10.88
2023-02-11T12:40:04.877Z,14.40
2023-02-11T12:43:20.431Z,11.82
2023-02-11T12:46:09.735Z,11.20
2023-02-11T12:48:58.341Z,13.13
2023-02-11T12:51:46.362Z,14.45
2023-02-11T12:54:37.568Z,11.68
2023-02-11T12:57:54.998Z,14.85
2023-02-11T13:00:41.203Z,12.45
2023-02-11T13:03:43.166Z,14.95
2023-02-11T13:06:21.584Z,14.68
2023-02-11T13:09:05.227Z,11.38
2023-02-11T13:11:48.947Z,9.43
2023-02-11T13:14:31.170Z,14.60
2023-02-11T13:17:21.060Z,12.15
2023-02-11T13:20:09.395Z,11.10
2023-02-11T13:22:51.806Z,13.13
2023-02-11T13:25:32.061Z,15.40
2023-02-11T13:28:20.631Z,16.38
2023-02-11T13:30:52.211Z,15.88
2023-02-11T13:33:49.614Z,13.65
2023-02-11T13:36:21.815Z,17.17
2023-02-11T13:38:58.807Z,18.50
2023-02-11T13:41:39.496Z,15.70
2023-02-11T13:44:22.107Z,17.90
2023-02-11T13:46:59.693Z,18.60
2023-02-11T13:49:31.918Z,16.40
2023-02-11T13:52:00.615Z,15.35
2023-02-11T13:54:36.039Z,16.95
2023-02-11T13:57:20.827Z,16.23
2023-02-11T13:59:49.333Z,15.90
2023-02-11T14:02:51.630Z,16.67
2023-02-11T14:05:36.857Z,19.58
2023-02-11T14:08:28.153Z,16.40
2023-02-11T14:10:56.863Z,14.75
2023-02-11T14:13:31.730Z,17.13
2023-02-11T14:16:35.353Z,15.00
2023-02-11T14:19:04.282Z,13.52
2023-02-11T14:21:35.838Z,17.42
2023-02-11T14:24:02.545Z,18.80
2023-02-11T14:26:42.372Z,15.80
2023-02-11T14:29:15.102Z,11.35
2023-02-11T14:32:15.069Z,11.77
2023-02-11T14:34:50.861Z,10.73
2023-02-11T14:37:59.449Z,9.00
2023-02-11T14:40:26.078Z,13.55
2023-02-11T14:42:55.161Z,13.25
2023-02-11T14:45:28.035Z,13.35
2023-02-11T14:48:08.188Z,15.55
2023-02-11T14:50:44.962Z,14.25
2023-02-11T14:53:17.920Z,10.15
2023-02-11T14:55:48.450Z,13.65
2023-02-11T14:58:25.814Z,13.27
2023-02-11T15:01:02.983Z,13.93
2023-02-11T15:03:48.736Z,17.25
2023-02-11T15:06:19.591Z,15.20
2023-02-11T15:08:53.428Z,16.25
2023-02-11T15:11:24.189Z,14.75
2023-02-11T15:13:55.011Z,14.52
2023-02-11T15:16:25.556Z,18.95
2023-02-11T15:18:56.795Z,16.60
2023-02-11T15:21:26.667Z,14.05
2023-02-11T15:24:02.092Z,20.85
2023-02-11T15:26:30.302Z,17.93
2023-02-11T15:28:56.925Z,16.67
2023-02-11T15:31:26.017Z,14.15
2023-02-11T15:33:56.151Z,14.82
2023-02-11T15:36:28.815Z,13.30
2023-02-11T15:39:18.482Z,14.68
2023-02-11T15:41:45.494Z,12.57
2023-02-11T15:44:32.372Z,15.18
2023-02-11T15:51:56.927Z,13.80
2023-02-11T15:54:31.574Z,13.73
2023-02-11T15:57:07.967Z,14.85
2023-02-11T16:02:26.645Z,21.40
2023-02-11T16:05:03.821Z,15.77
2023-02-11T16:07:46.348Z,19.60
2023-02-11T16:10:16.918Z,14.35
2023-02-11T16:12:53.855Z,13.95
2023-02-11T16:15:30.303Z,18.23
2023-02-11T16:17:57.779Z,16.83
2023-02-11T16:20:24.715Z,20.23
2023-02-11T16:22:51.623Z,17.83
2023-02-11T16:25:23.728Z,19.27
2023-02-11T16:27:54.361Z,20.70
2023-02-11T16:30:33.453Z,21.05
2023-02-11T16:33:00.181Z,17.55
2023-02-11T16:35:26.782Z,15.40
2023-02-11T16:37:54.903Z,23.15
2023-02-11T16:40:23.572Z,17.27
2023-02-11T16:42:52.474Z,18.35
2023-02-11T16:45:19.281Z,15.45
2023-02-11T16:47:46.526Z,17.35
2023-02-11T16:50:22.233Z,14.00
2023-02-11T16:52:49.222Z,12.38
2023-02-11T16:55:15.972Z,12.90
2023-02-11T16:57:42.691Z,11.90
2023-02-11T17:00:11.224Z,17.00
2023-02-11T17:02:38.869Z,13.50
2023-02-11T17:05:08.087Z,12.63
2023-02-11T17:07:35.368Z,15.35
2023-02-11T17:10:02.104Z,13.75
2023-02-11T17:12:31.021Z,14.82
2023-02-11T17:14:57.694Z,16.35
2023-02-11T17:17:24.364Z,15.43
2023-02-11T17:19:51.416Z,17.73
2023-02-11T17:22:18.698Z,16.48
2023-02-11T17:24:45.549Z,16.70
2023-02-11T17:27:15.202Z,17.23
2023-02-11T17:29:43.195Z,17.60
2023-02-11T17:32:09.904Z,15.65
2023-02-11T17:34:36.668Z,16.50
2023-02-11T17:37:08.945Z,18.65
2023-02-11T17:39:36.635Z,16.77
2023-02-11T17:42:04.246Z,19.85
2023-02-11T17:44:30.945Z,19.70
2023-02-11T17:46:57.660Z,17.73
2023-02-11T17:49:24.558Z,20.15
2023-02-11T17:51:51.240Z,21.65
2023-02-11T17:54:19.288Z,20.30
2023-02-11T17:56:48.407Z,21.05
2023-02-11T17:59:16.943Z,22.30
2023-02-11T18:01:43.930Z,17.40
2023-02-11T18:04:14.641Z,21.30
2023-02-11T18:06:41.413Z,20.30
2023-02-11T18:09:08.358Z,20.40
2023-02-11T18:11:36.690Z,22.15
2023-02-11T18:14:04.866Z,20.83
2023-02-11T18:16:34.420Z,18.15
2023-02-11T18:19:01.466Z,19.67
2023-02-11T18:21:28.258Z,19.52
2023-02-11T18:23:56.925Z,22.83
2023-02-11T18:26:26.286Z,19.83
2023-02-11T18:28:53.225Z,20.85
2023-02-11T18:31:20.148Z,18.05
2023-02-11T18:33:47.905Z,18.67
2023-02-11T18:36:15.779Z,17.73
2023-02-11T18:38:44.232Z,16.95
2023-02-11T18:41:11.818Z,17.88
2023-02-11T18:43:40.009Z,18.40
2023-02-11T18:46:09.970Z,15.13
2023-02-11T18:48:37.189Z,16.30
2023-02-11T18:51:13.017Z,19.02
2023-02-11T18:53:39.707Z,18.23
2023-02-11T18:56:18.612Z,19.15
2023-02-11T18:58:45.272Z,23.13
2023-02-11T19:01:11.949Z,24.17
2023-02-11T19:03:38.714Z,26.30
2023-02-11T19:06:06.189Z,21.02
2023-02-11T19:08:32.971Z,21.48
2023-02-11T19:10:59.718Z,22.05
2023-02-11T19:13:29.077Z,20.55
2023-02-11T19:15:55.817Z,21.15
2023-02-11T19:18:22.508Z,26.33
2023-02-11T19:20:49.170Z,18.88
2023-02-11T19:23:15.950Z,18.90
2023-02-11T19:25:47.482Z,21.70
2023-02-11T19:28:16.732Z,23.35
2023-02-11T19:30:43.496Z,18.48
2023-02-11T19:33:10.674Z,21.27
2023-02-11T19:35:37.337Z,20.15
2023-02-11T19:38:05.602Z,21.90
2023-02-11T19:40:32.908Z,20.83
2023-02-11T19:42:59.618Z,17.67
2023-02-11T19:45:27.045Z,19.95
2023-02-11T19:47:57.612Z,20.88
2023-02-11T19:50:25.266Z,19.92
2023-02-11T19:52:51.959Z,20.52
2023-02-11T19:55:18.781Z,18.45
2023-02-11T19:57:45.482Z,18.42
2023-02-11T20:00:12.775Z,16.27
2023-02-11T20:02:40.441Z,17.83
2023-02-11T20:05:07.608Z,18.08
2023-02-11T20:07:34.837Z,18.88
2023-02-11T20:10:01.578Z,15.38
2023-02-11T20:12:28.317Z,18.17
2023-02-11T20:14:54.989Z,14.60
2023-02-11T20:17:21.671Z,16.40
2023-02-11T20:19:48.590Z,16.70
2023-02-11T20:22:15.378Z,14.80
2023-02-11T20:24:42.097Z,15.15
2023-02-11T20:27:11.385Z,15.15
2023-02-11T20:29:38.955Z,16.88
2023-02-11T20:32:07.149Z,14.48
2023-02-11T20:34:34.370Z,16.45
2023-02-11T20:37:02.966Z,15.10
2023-02-11T20:39:29.964Z,18.52
2023-02-11T20:41:57.589Z,17.50
2023-02-11T20:44:24.604Z,17.10
2023-02-11T20:46:53.809Z,18.40
2023-02-11T20:49:23.194Z,17.23
2023-02-11T20:51:51.272Z,16.75
2023-02-11T20:54:19.954Z,20.88
2023-02-11T20:56:48.215Z,22.15
2023-02-11T20:59:16.594Z,22.60
2023-02-11T21:01:46.598Z,20.48
2023-02-11T21:04:17.076Z,20.35
2023-02-11T21:06:47.373Z,23.17
2023-02-11T21:09:19.887Z,23.58
2023-02-11T21:11:47.556Z,20.58
2023-02-11T21:14:14.779Z,18.95
2023-02-11T21:16:41.665Z,21.70
2023-02-11T21:19:08.431Z,22.30
2023-02-11T21:21:36.598Z,20.05
2023-02-11T21:24:04.258Z,21.90
2023-02-11T21:26:30.926Z,20.95
2023-02-11T21:28:57.742Z,20.70
2023-02-11T21:31:27.435Z,22.20
2023-02-11T21:33:55.440Z,25.33
2023-02-11T21:36:23.558Z,23.23
2023-02-11T21:38:50.588Z,22.35
2023-02-11T21:41:18.486Z,24.23
2023-02-11T21:43:45.444Z,24.05
2023-02-11T21:46:14.544Z,23.27
2023-02-11T21:48:41.697Z,23.65
2023-02-11T21:51:23.351Z,27.50
2023-02-11T21:53:55.653Z,28.58
2023-02-11T21:56:23.411Z,25.08
2023-02-11T21:58:53.123Z,26.27
2023-02-11T22:01:25.920Z,26.20
2023-02-11T22:03:52.816Z,27.05
2023-02-11T22:06:23.295Z,21.92
2023-02-11T22:08:50.618Z,25.65
2023-02-11T22:11:17.395Z,26.30
2023-02-11T22:13:44.106Z,25.17
2023-02-11T22:16:13.753Z,27.52
2023-02-11T22:18:41.045Z,26.25
2023-02-11T22:21:13.579Z,22.27
2023-02-11T22:23:40.830Z,24.08
2023-02-11T22:26:14.071Z,25.52
2023-02-11T22:28:41.248Z,21.58
2023-02-11T22:31:11.968Z,22.35
2023-02-11T22:33:41.463Z,21.75
2023-02-11T22:36:16.050Z,25.10
2023-02-11T22:38:42.718Z,22.67
2023-02-11T22:41:10.987Z,24.60
2023-02-11T22:43:38.503Z,22.80
2023-02-11T22:46:07.497Z,20.88
2023-02-11T22:48:35.495Z,21.40
2023-02-11T22:51:15.039Z,21.23
2023-02-11T22:53:43.701Z,18.15
2023-02-11T22:56:15.365Z,19.90
2023-02-11T22:58:43.224Z,20.05
2023-02-11T23:01:10.858Z,19.45
2023-02-11T23:03:37.524Z,18.05
2023-02-11T23:06:04.845Z,20.15
2023-02-11T23:08:32.215Z,20.90
2023-02-11T23:11:17.114Z,18.13
2023-02-11T23:13:44.887Z,18.60
2023-02-11T23:16:15.527Z,18.63
2023-02-11T23:18:44.162Z,19.27
2023-02-11T23:21:15.937Z,17.60
2023-02-11T23:23:43.018Z,17.73
2023-02-11T23:26:14.398Z,15.93
2023-02-11T23:28:41.735Z,17.20
2023-02-11T23:31:23.547Z,17.52
2023-02-11T23:33:50.406Z,14.20
2023-02-11T23:36:19.162Z,17.13
2023-02-11T23:38:46.630Z,13.60
2023-02-11T23:41:14.064Z,16.25
2023-02-11T23:43:41.105Z,17.23
2023-02-11T23:46:08.482Z,19.25
2023-02-11T23:48:37.677Z,17.60
2023-02-11T23:51:04.657Z,19.45
2023-02-11T23:53:31.296Z,16.90
2023-02-11T23:55:58.026Z,17.08
2023-02-11T23:58:24.684Z,15.85
